sensor_id;sensor_type;location;lat;lon;timestamp;pressure;altitude;pressure_sealevel;temperature;humidity
3082;BME280;1551;51.046;7.010;2023-01-29T00:01:06;102346.16;;;-1.26;81.25
3082;BME280;1551;51.046;7.010;2023-01-29T00:03:56;102345.97;;;-1.29;81.80
3082;BME280;1551;51.046;7.010;2023-01-29T00:06:45;102336.91;;;-1.27;81.37
3082;BME280;1551;51.046;7.010;2023-01-29T00:09:34;102322.97;;;-1.22;81.33
3082;BME280;1551;51.046;7.010;2023-01-29T00:12:23;102331.19;;;-1.11;81.37
3082;BME280;1551;51.046;7.010;2023-01-29T00:15:12;102334.00;;;-1.07;80.52
3082;BME280;1551;51.046;7.010;2023-01-29T00:18:01;102317.56;;;-1.15;80.74
3082;BME280;1551;51.046;7.010;2023-01-29T00:20:50;102322.97;;;-1.09;80.57
3082;BME280;1551;51.046;7.010;2023-01-29T00:23:40;102310.13;;;-1.26;80.40
3082;BME280;1551;51.046;7.010;2023-01-29T00:26:29;102321.16;;;-1.24;80.54
3082;BME280;1551;51.046;7.010;2023-01-29T00:29:18;102326.75;;;-1.42;80.64
3082;BME280;1551;51.046;7.010;2023-01-29T00:32:09;102327.13;;;-1.49;81.30
3082;BME280;1551;51.046;7.010;2023-01-29T00:34:59;102319.38;;;-1.52;81.20
3082;BME280;1551;51.046;7.010;2023-01-29T00:37:48;102310.78;;;-1.42;81.74
3082;BME280;1551;51.046;7.010;2023-01-29T00:40:38;102308.88;;;-1.33;80.88
3082;BME280;1551;51.046;7.010;2023-01-29T00:43:46;102292.34;;;-1.43;80.74
3082;BME280;1551;51.046;7.010;2023-01-29T00:46:54;102306.09;;;-1.24;80.55
3082;BME280;1551;51.046;7.010;2023-01-29T00:49:43;102294.50;;;-1.22;80.93
3082;BME280;1551;51.046;7.010;2023-01-29T00:52:34;102295.75;;;-1.16;80.29
3082;BME280;1551;51.046;7.010;2023-01-29T00:55:24;102306.94;;;-1.24;80.32
3082;BME280;1551;51.046;7.010;2023-01-29T00:58:13;102306.16;;;-1.23;80.40
3082;BME280;1551;51.046;7.010;2023-01-29T01:01:10;102307.44;;;-1.29;80.39
3082;BME280;1551;51.046;7.010;2023-01-29T01:03:59;102297.56;;;-1.26;80.67
3082;BME280;1551;51.046;7.010;2023-01-29T01:06:48;102301.22;;;-1.21;80.85
3082;BME280;1551;51.046;7.010;2023-01-29T01:09:37;102304.63;;;-1.21;80.38
3082;BME280;1551;51.046;7.010;2023-01-29T01:12:45;102302.41;;;-1.29;80.36
3082;BME280;1551;51.046;7.010;2023-01-29T01:15:37;102297.84;;;-1.35;81.17
3082;BME280;1551;51.046;7.010;2023-01-29T01:18:29;102300.00;;;-1.41;81.03
3082;BME280;1551;51.046;7.010;2023-01-29T01:21:19;102299.59;;;-1.47;81.48
3082;BME280;1551;51.046;7.010;2023-01-29T01:24:08;102297.56;;;-1.40;81.49
3082;BME280;1551;51.046;7.010;2023-01-29T01:26:57;102299.41;;;-1.37;81.40
3082;BME280;1551;51.046;7.010;2023-01-29T01:29:45;102301.16;;;-1.36;80.90
3082;BME280;1551;51.046;7.010;2023-01-29T01:32:34;102300.75;;;-1.42;80.57
3082;BME280;1551;51.046;7.010;2023-01-29T01:35:24;102310.13;;;-1.40;80.92
3082;BME280;1551;51.046;7.010;2023-01-29T01:38:13;102316.03;;;-1.39;80.56
3082;BME280;1551;51.046;7.010;2023-01-29T01:41:02;102316.69;;;-1.42;81.04
3082;BME280;1551;51.046;7.010;2023-01-29T01:43:56;102313.50;;;-1.39;80.65
3082;BME280;1551;51.046;7.010;2023-01-29T01:46:45;102304.53;;;-1.49;80.69
3082;BME280;1551;51.046;7.010;2023-01-29T01:49:34;102295.63;;;-1.70;80.42
3082;BME280;1551;51.046;7.010;2023-01-29T01:52:24;102288.66;;;-1.74;80.89
3082;BME280;1551;51.046;7.010;2023-01-29T01:55:15;102282.09;;;-1.72;81.49
3082;BME280;1551;51.046;7.010;2023-01-29T01:58:09;102290.88;;;-1.65;81.47
3082;BME280;1551;51.046;7.010;2023-01-29T02:01:02;102272.34;;;-1.67;81.05
3082;BME280;1551;51.046;7.010;2023-01-29T02:04:05;102259.69;;;-1.82;81.01
3082;BME280;1551;51.046;7.010;2023-01-29T02:07:14;102266.75;;;-1.76;81.21
3082;BME280;1551;51.046;7.010;2023-01-29T02:10:22;102275.03;;;-1.77;80.94
3082;BME280;1551;51.046;7.010;2023-01-29T02:13:14;102273.50;;;-1.75;81.04
3082;BME280;1551;51.046;7.010;2023-01-29T02:16:06;102274.44;;;-1.73;80.89
3082;BME280;1551;51.046;7.010;2023-01-29T02:18:56;102275.25;;;-1.74;81.31
3082;BME280;1551;51.046;7.010;2023-01-29T02:21:58;102284.69;;;-1.70;81.08
3082;BME280;1551;51.046;7.010;2023-01-29T02:25:26;102284.03;;;-1.68;80.86
3082;BME280;1551;51.046;7.010;2023-01-29T02:28:33;102291.75;;;-1.65;81.08
3082;BME280;1551;51.046;7.010;2023-01-29T02:31:38;102291.63;;;-1.79;80.90
3082;BME280;1551;51.046;7.010;2023-01-29T02:41:25;102276.59;;;-1.79;81.21
3082;BME280;1551;51.046;7.010;2023-01-29T02:44:33;102294.66;;;-1.72;81.04
3082;BME280;1551;51.046;7.010;2023-01-29T02:47:33;102304.00;;;-1.69;81.55
3082;BME280;1551;51.046;7.010;2023-01-29T02:50:42;102309.94;;;-1.80;80.88
3082;BME280;1551;51.046;7.010;2023-01-29T02:53:40;102315.41;;;-1.74;81.26
3082;BME280;1551;51.046;7.010;2023-01-29T02:56:39;102313.34;;;-1.80;81.44
3082;BME280;1551;51.046;7.010;2023-01-29T02:59:53;102313.34;;;-1.80;81.11
3082;BME280;1551;51.046;7.010;2023-01-29T03:02:51;102315.63;;;-1.83;81.16
3082;BME280;1551;51.046;7.010;2023-01-29T03:11:49;102339.03;;;-1.71;81.25
3082;BME280;1551;51.046;7.010;2023-01-29T03:14:45;102325.63;;;-1.71;81.38
3082;BME280;1551;51.046;7.010;2023-01-29T03:17:59;102310.06;;;-1.79;80.53
3082;BME280;1551;51.046;7.010;2023-01-29T03:20:54;102303.16;;;-1.94;80.55
3082;BME280;1551;51.046;7.010;2023-01-29T03:23:48;102300.88;;;-1.91;80.68
3082;BME280;1551;51.046;7.010;2023-01-29T03:26:57;102307.50;;;-1.92;80.72
3082;BME280;1551;51.046;7.010;2023-01-29T03:30:10;102298.06;;;-1.96;80.67
3082;BME280;1551;51.046;7.010;2023-01-29T03:33:31;102286.38;;;-1.95;80.73
3082;BME280;1551;51.046;7.010;2023-01-29T03:36:39;102291.00;;;-2.01;80.49
3082;BME280;1551;51.046;7.010;2023-01-29T03:39:33;102298.03;;;-2.09;80.77
3082;BME280;1551;51.046;7.010;2023-01-29T03:45:28;102300.47;;;-1.97;80.92
3082;BME280;1551;51.046;7.010;2023-01-29T03:52:18;102302.56;;;-2.03;81.40
3082;BME280;1551;51.046;7.010;2023-01-29T03:55:23;102307.13;;;-1.98;81.41
3082;BME280;1551;51.046;7.010;2023-01-29T03:58:24;102316.41;;;-1.97;81.54
3082;BME280;1551;51.046;7.010;2023-01-29T04:01:47;102312.81;;;-2.00;81.91
3082;BME280;1551;51.046;7.010;2023-01-29T04:04:42;102314.13;;;-2.05;81.40
3082;BME280;1551;51.046;7.010;2023-01-29T04:07:33;102311.94;;;-2.01;81.64
3082;BME280;1551;51.046;7.010;2023-01-29T04:10:26;102303.81;;;-2.10;81.29
3082;BME280;1551;51.046;7.010;2023-01-29T04:13:16;102298.69;;;-2.12;81.81
3082;BME280;1551;51.046;7.010;2023-01-29T04:16:13;102295.91;;;-2.03;81.63
3082;BME280;1551;51.046;7.010;2023-01-29T04:19:27;102289.03;;;-2.19;81.52
3082;BME280;1551;51.046;7.010;2023-01-29T04:22:37;102278.13;;;-2.19;81.71
3082;BME280;1551;51.046;7.010;2023-01-29T04:25:33;102282.84;;;-2.24;81.75
3082;BME280;1551;51.046;7.010;2023-01-29T04:28:29;102276.94;;;-2.24;81.61
3082;BME280;1551;51.046;7.010;2023-01-29T04:31:32;102270.59;;;-2.19;81.40
3082;BME280;1551;51.046;7.010;2023-01-29T04:34:28;102264.84;;;-2.18;81.10
3082;BME280;1551;51.046;7.010;2023-01-29T04:37:31;102260.19;;;-2.12;81.24
3082;BME280;1551;51.046;7.010;2023-01-29T04:40:38;102270.22;;;-2.12;80.96
3082;BME280;1551;51.046;7.010;2023-01-29T04:46:33;102267.34;;;-2.05;81.41
3082;BME280;1551;51.046;7.010;2023-01-29T04:49:44;102274.00;;;-2.05;81.28
3082;BME280;1551;51.046;7.010;2023-01-29T04:55:53;102262.81;;;-2.11;81.31
3082;BME280;1551;51.046;7.010;2023-01-29T04:58:50;102252.38;;;-2.17;80.89
3082;BME280;1551;51.046;7.010;2023-01-29T05:01:40;102254.22;;;-2.14;80.87
3082;BME280;1551;51.046;7.010;2023-01-29T05:04:32;102241.47;;;-2.17;80.75
3082;BME280;1551;51.046;7.010;2023-01-29T05:07:23;102242.34;;;-2.17;81.37
3082;BME280;1551;51.046;7.010;2023-01-29T05:10:17;102239.94;;;-2.15;81.01
3082;BME280;1551;51.046;7.010;2023-01-29T05:13:11;102239.19;;;-2.14;81.27
3082;BME280;1551;51.046;7.010;2023-01-29T05:16:06;102240.59;;;-2.18;81.47
3082;BME280;1551;51.046;7.010;2023-01-29T05:18:56;102250.16;;;-2.12;81.95
3082;BME280;1551;51.046;7.010;2023-01-29T05:21:47;102250.25;;;-2.11;81.75
3082;BME280;1551;51.046;7.010;2023-01-29T05:24:37;102231.66;;;-2.14;82.09
3082;BME280;1551;51.046;7.010;2023-01-29T05:27:33;102239.38;;;-2.11;82.00
3082;BME280;1551;51.046;7.010;2023-01-29T05:33:32;102229.22;;;-2.13;81.80
3082;BME280;1551;51.046;7.010;2023-01-29T05:36:21;102230.88;;;-2.13;81.39
3082;BME280;1551;51.046;7.010;2023-01-29T05:39:10;102231.38;;;-2.05;81.82
3082;BME280;1551;51.046;7.010;2023-01-29T05:41:59;102224.34;;;-1.98;81.82
3082;BME280;1551;51.046;7.010;2023-01-29T05:44:48;102221.94;;;-1.96;81.88
3082;BME280;1551;51.046;7.010;2023-01-29T05:47:38;102219.13;;;-2.01;81.71
3082;BME280;1551;51.046;7.010;2023-01-29T05:50:27;102215.94;;;-1.98;81.77
3082;BME280;1551;51.046;7.010;2023-01-29T05:53:16;102233.91;;;-1.92;81.57
3082;BME280;1551;51.046;7.010;2023-01-29T05:56:05;102237.19;;;-1.80;81.81
3082;BME280;1551;51.046;7.010;2023-01-29T05:58:55;102227.56;;;-1.74;81.63
3082;BME280;1551;51.046;7.010;2023-01-29T06:01:44;102237.69;;;-1.73;81.70
3082;BME280;1551;51.046;7.010;2023-01-29T06:04:33;102237.03;;;-1.70;81.79
3082;BME280;1551;51.046;7.010;2023-01-29T06:07:22;102237.97;;;-1.68;81.30
3082;BME280;1551;51.046;7.010;2023-01-29T06:10:13;102242.13;;;-1.69;81.31
3082;BME280;1551;51.046;7.010;2023-01-29T06:13:02;102248.50;;;-1.74;81.34
3082;BME280;1551;51.046;7.010;2023-01-29T06:15:52;102244.72;;;-1.80;81.38
3082;BME280;1551;51.046;7.010;2023-01-29T06:18:41;102246.56;;;-1.78;81.47
3082;BME280;1551;51.046;7.010;2023-01-29T06:21:30;102248.50;;;-1.74;81.55
3082;BME280;1551;51.046;7.010;2023-01-29T06:24:20;102247.72;;;-1.73;81.68
3082;BME280;1551;51.046;7.010;2023-01-29T06:27:08;102245.34;;;-1.71;81.68
3082;BME280;1551;51.046;7.010;2023-01-29T06:29:57;102246.97;;;-1.72;81.71
3082;BME280;1551;51.046;7.010;2023-01-29T06:32:46;102255.38;;;-1.71;82.05
3082;BME280;1551;51.046;7.010;2023-01-29T06:35:35;102263.44;;;-1.75;81.43
3082;BME280;1551;51.046;7.010;2023-01-29T06:38:25;102270.38;;;-1.84;81.85
3082;BME280;1551;51.046;7.010;2023-01-29T06:41:17;102277.34;;;-1.80;82.34
3082;BME280;1551;51.046;7.010;2023-01-29T06:44:07;102283.81;;;-1.71;81.99
3082;BME280;1551;51.046;7.010;2023-01-29T06:46:56;102287.13;;;-1.72;81.86
3082;BME280;1551;51.046;7.010;2023-01-29T06:49:45;102291.84;;;-1.63;82.25
3082;BME280;1551;51.046;7.010;2023-01-29T06:52:34;102299.47;;;-1.62;81.31
3082;BME280;1551;51.046;7.010;2023-01-29T06:55:23;102300.47;;;-1.60;81.86
3082;BME280;1551;51.046;7.010;2023-01-29T06:58:12;102291.09;;;-1.62;81.47
3082;BME280;1551;51.046;7.010;2023-01-29T07:01:06;102292.06;;;-1.60;81.45
3082;BME280;1551;51.046;7.010;2023-01-29T07:03:55;102285.19;;;-1.63;81.48
3082;BME280;1551;51.046;7.010;2023-01-29T07:06:44;102274.00;;;-1.68;81.94
3082;BME280;1551;51.046;7.010;2023-01-29T07:09:35;102286.53;;;-1.68;81.71
3082;BME280;1551;51.046;7.010;2023-01-29T07:12:23;102279.09;;;-1.66;82.02
3082;BME280;1551;51.046;7.010;2023-01-29T07:15:13;102275.75;;;-1.54;82.18
3082;BME280;1551;51.046;7.010;2023-01-29T07:18:03;102282.41;;;-1.41;81.52
3082;BME280;1551;51.046;7.010;2023-01-29T07:20:53;102279.53;;;-1.34;81.16
3082;BME280;1551;51.046;7.010;2023-01-29T07:23:42;102281.66;;;-1.27;81.16
3082;BME280;1551;51.046;7.010;2023-01-29T07:26:31;102274.41;;;-1.22;80.50
3082;BME280;1551;51.046;7.010;2023-01-29T07:29:20;102282.22;;;-1.18;80.54
3082;BME280;1551;51.046;7.010;2023-01-29T07:32:09;102281.16;;;-1.08;81.08
3082;BME280;1551;51.046;7.010;2023-01-29T07:34:58;102279.88;;;-1.02;80.75
3082;BME280;1551;51.046;7.010;2023-01-29T07:37:48;102280.16;;;-0.97;80.68
3082;BME280;1551;51.046;7.010;2023-01-29T07:40:38;102266.59;;;-0.86;81.09
3082;BME280;1551;51.046;7.010;2023-01-29T07:43:27;102272.09;;;-0.79;80.54
3082;BME280;1551;51.046;7.010;2023-01-29T07:46:16;102288.69;;;-0.68;80.37
3082;BME280;1551;51.046;7.010;2023-01-29T07:49:04;102286.72;;;-0.58;80.64
3082;BME280;1551;51.046;7.010;2023-01-29T07:51:53;102281.91;;;-0.55;80.00
3082;BME280;1551;51.046;7.010;2023-01-29T07:54:43;102269.50;;;-0.52;79.82
3082;BME280;1551;51.046;7.010;2023-01-29T07:57:31;102266.81;;;-0.55;79.92
3082;BME280;1551;51.046;7.010;2023-01-29T08:00:21;102267.06;;;-0.51;80.16
3082;BME280;1551;51.046;7.010;2023-01-29T08:03:12;102258.78;;;-0.50;80.05
3082;BME280;1551;51.046;7.010;2023-01-29T08:06:02;102268.44;;;-0.56;80.39
3082;BME280;1551;51.046;7.010;2023-01-29T08:08:51;102266.81;;;-0.55;80.77
3082;BME280;1551;51.046;7.010;2023-01-29T08:11:41;102270.47;;;-0.50;80.71
3082;BME280;1551;51.046;7.010;2023-01-29T08:14:30;102266.66;;;-0.44;80.85
3082;BME280;1551;51.046;7.010;2023-01-29T08:17:19;102262.78;;;-0.39;80.67
3082;BME280;1551;51.046;7.010;2023-01-29T08:20:08;102268.75;;;-0.37;81.00
3082;BME280;1551;51.046;7.010;2023-01-29T08:23:03;102279.69;;;-0.36;80.24
3082;BME280;1551;51.046;7.010;2023-01-29T08:25:52;102277.44;;;-0.32;80.44
3082;BME280;1551;51.046;7.010;2023-01-29T08:28:41;102280.31;;;-0.26;80.71
3082;BME280;1551;51.046;7.010;2023-01-29T08:31:30;102273.06;;;-0.21;80.59
3082;BME280;1551;51.046;7.010;2023-01-29T08:34:19;102280.00;;;-0.17;80.61
3082;BME280;1551;51.046;7.010;2023-01-29T08:37:08;102274.19;;;-0.16;80.74
3082;BME280;1551;51.046;7.010;2023-01-29T08:39:57;102276.00;;;-0.14;80.40
3082;BME280;1551;51.046;7.010;2023-01-29T08:42:46;102275.94;;;-0.15;80.91
3082;BME280;1551;51.046;7.010;2023-01-29T08:45:37;102260.75;;;-0.17;80.25
3082;BME280;1551;51.046;7.010;2023-01-29T08:48:27;102254.84;;;-0.17;80.91
3082;BME280;1551;51.046;7.010;2023-01-29T08:51:17;102265.69;;;-0.04;81.03
3082;BME280;1551;51.046;7.010;2023-01-29T08:54:06;102263.03;;;0.08;80.90
3082;BME280;1551;51.046;7.010;2023-01-29T08:56:55;102262.16;;;0.22;80.60
3082;BME280;1551;51.046;7.010;2023-01-29T08:59:44;102271.59;;;0.26;80.03
3082;BME280;1551;51.046;7.010;2023-01-29T09:02:33;102274.31;;;0.29;80.67
3082;BME280;1551;51.046;7.010;2023-01-29T09:05:22;102266.06;;;0.32;79.88
3082;BME280;1551;51.046;7.010;2023-01-29T09:08:11;102275.81;;;0.26;80.10
3082;BME280;1551;51.046;7.010;2023-01-29T09:11:00;102266.84;;;0.31;79.84
3082;BME280;1551;51.046;7.010;2023-01-29T09:13:49;102269.97;;;0.41;79.30
3082;BME280;1551;51.046;7.010;2023-01-29T09:16:39;102259.00;;;0.55;79.80
3082;BME280;1551;51.046;7.010;2023-01-29T09:19:28;102250.94;;;0.61;78.85
3082;BME280;1551;51.046;7.010;2023-01-29T09:22:17;102260.31;;;0.49;78.70
3082;BME280;1551;51.046;7.010;2023-01-29T09:25:07;102253.72;;;0.36;79.07
3082;BME280;1551;51.046;7.010;2023-01-29T09:27:56;102236.44;;;0.42;79.23
3082;BME280;1551;51.046;7.010;2023-01-29T09:30:45;102233.56;;;0.51;79.36
3082;BME280;1551;51.046;7.010;2023-01-29T09:33:35;102231.13;;;0.52;79.05
3082;BME280;1551;51.046;7.010;2023-01-29T09:36:24;102227.66;;;0.50;78.74
3082;BME280;1551;51.046;7.010;2023-01-29T09:39:13;102229.09;;;0.61;79.16
3082;BME280;1551;51.046;7.010;2023-01-29T09:42:24;102220.22;;;0.68;78.53
3082;BME280;1551;51.046;7.010;2023-01-29T09:45:24;102216.22;;;0.72;78.74
3082;BME280;1551;51.046;7.010;2023-01-29T09:48:15;102208.78;;;0.89;79.21
3082;BME280;1551;51.046;7.010;2023-01-29T09:51:38;102210.06;;;0.97;78.32
3082;BME280;1551;51.046;7.010;2023-01-29T09:54:24;102209.06;;;1.10;78.42
3082;BME280;1551;51.046;7.010;2023-01-29T09:57:24;102193.84;;;1.08;78.43
3082;BME280;1551;51.046;7.010;2023-01-29T10:00:20;102197.09;;;1.22;78.31
3082;BME280;1551;51.046;7.010;2023-01-29T10:13:20;102200.00;;;1.79;77.23
3082;BME280;1551;51.046;7.010;2023-01-29T10:16:48;102203.53;;;1.99;76.79
3082;BME280;1551;51.046;7.010;2023-01-29T10:26:09;102210.56;;;1.88;75.54
3082;BME280;1551;51.046;7.010;2023-01-29T10:28:59;102190.75;;;1.96;75.39
3082;BME280;1551;51.046;7.010;2023-01-29T10:32:00;102184.31;;;2.02;75.22
3082;BME280;1551;51.046;7.010;2023-01-29T10:35:32;102198.81;;;1.89;74.67
3082;BME280;1551;51.046;7.010;2023-01-29T10:54:36;102183.78;;;2.08;74.67
3082;BME280;1551;51.046;7.010;2023-01-29T10:57:51;102174.88;;;2.16;74.36
3082;BME280;1551;51.046;7.010;2023-01-29T11:00:42;102168.03;;;2.14;73.68
3082;BME280;1551;51.046;7.010;2023-01-29T11:03:32;102156.84;;;2.26;73.85
3082;BME280;1551;51.046;7.010;2023-01-29T11:06:31;102147.31;;;2.21;72.58
3082;BME280;1551;51.046;7.010;2023-01-29T11:09:41;102150.28;;;2.12;73.33
3082;BME280;1551;51.046;7.010;2023-01-29T11:12:32;102137.94;;;2.18;72.90
3082;BME280;1551;51.046;7.010;2023-01-29T11:15:25;102132.16;;;2.21;72.53
3082;BME280;1551;51.046;7.010;2023-01-29T11:18:17;102135.50;;;2.20;72.67
3082;BME280;1551;51.046;7.010;2023-01-29T11:21:06;102116.50;;;2.28;72.46
3082;BME280;1551;51.046;7.010;2023-01-29T11:26:57;102123.88;;;2.41;71.93
3082;BME280;1551;51.046;7.010;2023-01-29T11:29:47;102128.91;;;2.41;72.08
3082;BME280;1551;51.046;7.010;2023-01-29T11:32:36;102115.03;;;2.50;72.06
3082;BME280;1551;51.046;7.010;2023-01-29T11:35:25;102115.41;;;2.58;71.95
3082;BME280;1551;51.046;7.010;2023-01-29T11:41:14;102106.34;;;2.63;71.29
3082;BME280;1551;51.046;7.010;2023-01-29T11:44:17;102101.41;;;2.66;71.41
3082;BME280;1551;51.046;7.010;2023-01-29T11:50:03;102098.72;;;2.81;71.12
3082;BME280;1551;51.046;7.010;2023-01-29T11:52:52;102086.41;;;2.69;71.00
3082;BME280;1551;51.046;7.010;2023-01-29T11:55:44;102078.94;;;2.72;71.38
3082;BME280;1551;51.046;7.010;2023-01-29T11:58:35;102070.75;;;2.58;71.33
3082;BME280;1551;51.046;7.010;2023-01-29T12:01:36;102057.66;;;2.67;70.93
3082;BME280;1551;51.046;7.010;2023-01-29T12:04:26;102066.44;;;2.75;71.63
3082;BME280;1551;51.046;7.010;2023-01-29T12:07:17;102062.16;;;2.93;71.31
3082;BME280;1551;51.046;7.010;2023-01-29T12:10:36;102067.16;;;2.72;71.06
3082;BME280;1551;51.046;7.010;2023-01-29T12:13:27;102041.00;;;2.72;71.15
3082;BME280;1551;51.046;7.010;2023-01-29T12:16:22;102047.34;;;2.82;71.51
3082;BME280;1551;51.046;7.010;2023-01-29T12:19:24;102042.75;;;2.92;71.26
3082;BME280;1551;51.046;7.010;2023-01-29T12:22:43;102039.53;;;2.96;70.69
3082;BME280;1551;51.046;7.010;2023-01-29T12:25:59;102027.59;;;3.13;70.93
3082;BME280;1551;51.046;7.010;2023-01-29T12:29:04;102017.00;;;3.21;70.48
3082;BME280;1551;51.046;7.010;2023-01-29T12:32:08;102008.19;;;3.32;70.10
3082;BME280;1551;51.046;7.010;2023-01-29T12:35:09;101994.81;;;3.35;69.59
3082;BME280;1551;51.046;7.010;2023-01-29T12:38:18;101984.50;;;3.30;69.72
3082;BME280;1551;51.046;7.010;2023-01-29T12:41:23;101971.16;;;3.34;69.29
3082;BME280;1551;51.046;7.010;2023-01-29T12:44:19;101963.13;;;3.44;69.18
3082;BME280;1551;51.046;7.010;2023-01-29T12:47:15;101951.56;;;3.51;69.24
3082;BME280;1551;51.046;7.010;2023-01-29T12:56:33;101936.13;;;3.45;68.48
3082;BME280;1551;51.046;7.010;2023-01-29T12:59:31;101939.31;;;3.62;67.91
3082;BME280;1551;51.046;7.010;2023-01-29T13:02:31;101936.03;;;3.64;68.05
3082;BME280;1551;51.046;7.010;2023-01-29T13:05:24;101935.75;;;3.79;67.32
3082;BME280;1551;51.046;7.010;2023-01-29T13:08:25;101929.78;;;3.77;67.11
3082;BME280;1551;51.046;7.010;2023-01-29T13:14:18;101910.97;;;3.70;67.04
3082;BME280;1551;51.046;7.010;2023-01-29T13:17:17;101914.56;;;3.55;67.07
3082;BME280;1551;51.046;7.010;2023-01-29T13:20:14;101906.06;;;3.53;67.42
3082;BME280;1551;51.046;7.010;2023-01-29T13:23:19;101902.25;;;3.64;67.69
3082;BME280;1551;51.046;7.010;2023-01-29T13:26:10;101884.78;;;3.70;67.30
3082;BME280;1551;51.046;7.010;2023-01-29T13:28:58;101879.88;;;3.74;67.29
3082;BME280;1551;51.046;7.010;2023-01-29T13:31:51;101880.75;;;3.75;66.77
3082;BME280;1551;51.046;7.010;2023-01-29T13:34:45;101887.66;;;3.79;67.24
3082;BME280;1551;51.046;7.010;2023-01-29T13:37:40;101876.03;;;3.84;67.06
3082;BME280;1551;51.046;7.010;2023-01-29T13:40:34;101869.97;;;3.80;66.60
3082;BME280;1551;51.046;7.010;2023-01-29T13:43:23;101870.88;;;3.82;66.49
3082;BME280;1551;51.046;7.010;2023-01-29T13:46:16;101869.97;;;3.80;66.42
3082;BME280;1551;51.046;7.010;2023-01-29T13:49:26;101872.19;;;3.71;67.04
3082;BME280;1551;51.046;7.010;2023-01-29T13:52:40;101863.94;;;3.77;67.06
3082;BME280;1551;51.046;7.010;2023-01-29T13:55:34;101874.38;;;3.84;66.51
3082;BME280;1551;51.046;7.010;2023-01-29T14:04:37;101868.44;;;4.07;66.45
3082;BME280;1551;51.046;7.010;2023-01-29T14:10:35;101864.47;;;3.92;67.20
3082;BME280;1551;51.046;7.010;2023-01-29T14:13:26;101864.72;;;3.98;66.60
3082;BME280;1551;51.046;7.010;2023-01-29T14:19:04;101860.59;;;4.01;67.35
3082;BME280;1551;51.046;7.010;2023-01-29T14:21:56;101854.63;;;3.99;67.29
3082;BME280;1551;51.046;7.010;2023-01-29T14:24:46;101861.03;;;3.90;67.41
3082;BME280;1551;51.046;7.010;2023-01-29T14:27:36;101861.47;;;4.02;67.16
3082;BME280;1551;51.046;7.010;2023-01-29T14:30:27;101858.81;;;3.99;67.30
3082;BME280;1551;51.046;7.010;2023-01-29T14:33:36;101850.75;;;3.85;67.64
3082;BME280;1551;51.046;7.010;2023-01-29T14:36:27;101862.94;;;3.95;67.49
3082;BME280;1551;51.046;7.010;2023-01-29T14:39:22;101853.34;;;3.87;67.88
3082;BME280;1551;51.046;7.010;2023-01-29T14:42:20;101861.19;;;3.94;68.28
3082;BME280;1551;51.046;7.010;2023-01-29T14:48:37;101857.63;;;4.13;67.67
3082;BME280;1551;51.046;7.010;2023-01-29T14:51:31;101852.69;;;4.16;67.16
3082;BME280;1551;51.046;7.010;2023-01-29T14:54:26;101858.78;;;4.21;68.06
3082;BME280;1551;51.046;7.010;2023-01-29T14:57:18;101856.44;;;4.27;67.39
3082;BME280;1551;51.046;7.010;2023-01-29T15:00:29;101859.81;;;4.26;67.07
3082;BME280;1551;51.046;7.010;2023-01-29T15:03:36;101863.25;;;4.28;67.13
3082;BME280;1551;51.046;7.010;2023-01-29T15:06:32;101857.19;;;4.25;66.93
3082;BME280;1551;51.046;7.010;2023-01-29T15:12:29;101853.66;;;4.20;66.64
3082;BME280;1551;51.046;7.010;2023-01-29T15:18:32;101844.69;;;4.29;66.54
3082;BME280;1551;51.046;7.010;2023-01-29T15:21:22;101838.63;;;4.24;67.06
3082;BME280;1551;51.046;7.010;2023-01-29T15:24:12;101839.47;;;4.25;66.75
3082;BME280;1551;51.046;7.010;2023-01-29T15:27:01;101837.78;;;4.25;66.00
3082;BME280;1551;51.046;7.010;2023-01-29T15:29:57;101847.88;;;4.24;66.48
3082;BME280;1551;51.046;7.010;2023-01-29T15:32:47;101841.00;;;4.20;66.65
3082;BME280;1551;51.046;7.010;2023-01-29T15:35:38;101843.31;;;4.13;66.84
3082;BME280;1551;51.046;7.010;2023-01-29T15:38:29;101837.59;;;4.19;67.07
3082;BME280;1551;51.046;7.010;2023-01-29T15:41:19;101843.56;;;4.21;66.72
3082;BME280;1551;51.046;7.010;2023-01-29T15:44:20;101835.16;;;4.22;66.81
3082;BME280;1551;51.046;7.010;2023-01-29T15:47:10;101830.91;;;4.21;67.18
3082;BME280;1551;51.046;7.010;2023-01-29T15:50:00;101833.13;;;4.12;67.39
3082;BME280;1551;51.046;7.010;2023-01-29T15:52:51;101835.09;;;4.21;67.21
3082;BME280;1551;51.046;7.010;2023-01-29T15:55:41;101828.41;;;4.23;67.60
3082;BME280;1551;51.046;7.010;2023-01-29T15:58:31;101823.47;;;4.26;67.57
3082;BME280;1551;51.046;7.010;2023-01-29T16:01:20;101817.41;;;4.22;67.01
3082;BME280;1551;51.046;7.010;2023-01-29T16:04:14;101812.31;;;4.21;67.70
3082;BME280;1551;51.046;7.010;2023-01-29T16:07:05;101816.91;;;4.32;68.06
3082;BME280;1551;51.046;7.010;2023-01-29T16:09:54;101823.72;;;4.33;67.47
3082;BME280;1551;51.046;7.010;2023-01-29T16:12:44;101817.81;;;4.34;67.86
3082;BME280;1551;51.046;7.010;2023-01-29T16:15:53;101819.72;;;4.40;68.05
3082;BME280;1551;51.046;7.010;2023-01-29T16:18:44;101816.13;;;4.33;68.08
3082;BME280;1551;51.046;7.010;2023-01-29T16:21:36;101816.97;;;4.34;67.45
3082;BME280;1551;51.046;7.010;2023-01-29T16:24:28;101817.38;;;4.21;67.63
3082;BME280;1551;51.046;7.010;2023-01-29T16:27:18;101806.19;;;4.14;68.28
3082;BME280;1551;51.046;7.010;2023-01-29T16:30:10;101807.13;;;4.17;68.59
3082;BME280;1551;51.046;7.010;2023-01-29T16:33:04;101807.88;;;4.15;69.06
3082;BME280;1551;51.046;7.010;2023-01-29T16:35:54;101795.94;;;4.11;68.65
3082;BME280;1551;51.046;7.010;2023-01-29T16:38:46;101809.78;;;4.21;68.71
3082;BME280;1551;51.046;7.010;2023-01-29T16:41:36;101803.00;;;4.20;68.52
3082;BME280;1551;51.046;7.010;2023-01-29T16:44:36;101796.50;;;4.28;69.50
3082;BME280;1551;51.046;7.010;2023-01-29T16:50:28;101790.84;;;4.36;69.07
3082;BME280;1551;51.046;7.010;2023-01-29T16:53:21;101797.78;;;4.40;69.19
3082;BME280;1551;51.046;7.010;2023-01-29T16:56:12;101796.66;;;4.32;68.73
3082;BME280;1551;51.046;7.010;2023-01-29T16:59:03;101788.16;;;4.32;68.58
3082;BME280;1551;51.046;7.010;2023-01-29T17:01:55;101785.34;;;4.23;69.29
3082;BME280;1551;51.046;7.010;2023-01-29T17:04:45;101778.59;;;4.23;68.83
3082;BME280;1551;51.046;7.010;2023-01-29T17:07:35;101779.88;;;4.36;68.55
3082;BME280;1551;51.046;7.010;2023-01-29T17:10:26;101781.19;;;4.25;69.17
3082;BME280;1551;51.046;7.010;2023-01-29T17:13:35;101772.59;;;4.20;68.78
3082;BME280;1551;51.046;7.010;2023-01-29T17:16:28;101775.03;;;4.16;69.68
3082;BME280;1551;51.046;7.010;2023-01-29T17:19:18;101767.41;;;4.16;69.77
3082;BME280;1551;51.046;7.010;2023-01-29T17:22:11;101772.53;;;4.18;69.30
3082;BME280;1551;51.046;7.010;2023-01-29T17:25:03;101764.72;;;4.12;69.87